sensor_id;sensor_type;location;lat;lon;timestamp;P1;durP1;ratioP1;P2;durP2;ratioP2
11604;SDS011;5858;43.076;25.626;2023-02-14T00:02:00;59.83;;;36.40;;
11604;SDS011;5858;43.076;25.626;2023-02-14T00:04:35;59.37;;;34.87;;
11604;SDS011;5858;43.076;25.626;2023-02-14T00:07:13;58.03;;;36.10;;
11604;SDS011;5858;43.076;25.626;2023-02-14T00:09:47;65.60;;;38.23;;
11604;SDS011;5858;43.076;25.626;2023-02-14T00:12:20;60.53;;;36.93;;
11604;SDS011;5858;43.076;25.626;2023-02-14T00:14:57;62.77;;;39.73;;
11604;SDS011;5858;43.076;25.626;2023-02-14T00:17:43;62.67;;;37.70;;
11604;SDS011;5858;43.076;25.626;2023-02-14T00:20:12;66.37;;;38.37;;
11604;SDS011;5858;43.076;25.626;2023-02-14T00:22:55;60.57;;;37.57;;
11604;SDS011;5858;43.076;25.626;2023-02-14T00:25:24;62.63;;;38.23;;
11604;SDS011;5858;43.076;25.626;2023-02-14T00:27:54;63.97;;;37.93;;
11604;SDS011;5858;43.076;25.626;2023-02-14T00:30:24;63.53;;;38.47;;
11604;SDS011;5858;43.076;25.626;2023-02-14T00:32:53;64.30;;;38.63;;
11604;SDS011;5858;43.076;25.626;2023-02-14T00:35:22;56.77;;;35.10;;
11604;SDS011;5858;43.076;25.626;2023-02-14T00:37:51;59.97;;;36.13;;
11604;SDS011;5858;43.076;25.626;2023-02-14T00:40:19;54.27;;;33.43;;
11604;SDS011;5858;43.076;25.626;2023-02-14T00:42:48;50.83;;;31.20;;
11604;SDS011;5858;43.076;25.626;2023-02-14T00:45:19;45.67;;;29.20;;
11604;SDS011;5858;43.076;25.626;2023-02-14T00:47:50;43.37;;;28.23;;
11604;SDS011;5858;43.076;25.626;2023-02-14T00:50:19;45.27;;;27.63;;
11604;SDS011;5858;43.076;25.626;2023-02-14T00:52:56;51.30;;;33.23;;
11604;SDS011;5858;43.076;25.626;2023-02-14T00:55:25;56.83;;;33.53;;
11604;SDS011;5858;43.076;25.626;2023-02-14T00:57:53;54.07;;;32.03;;
11604;SDS011;5858;43.076;25.626;2023-02-14T01:00:21;52.43;;;30.90;;
11604;SDS011;5858;43.076;25.626;2023-02-14T01:02:56;52.73;;;33.20;;
11604;SDS011;5858;43.076;25.626;2023-02-14T01:05:24;52.93;;;31.10;;
11604;SDS011;5858;43.076;25.626;2023-02-14T01:07:56;56.40;;;33.23;;
11604;SDS011;5858;43.076;25.626;2023-02-14T01:10:25;54.30;;;32.20;;
11604;SDS011;5858;43.076;25.626;2023-02-14T01:12:52;54.33;;;33.23;;
11604;SDS011;5858;43.076;25.626;2023-02-14T01:15:20;52.93;;;33.47;;
11604;SDS011;5858;43.076;25.626;2023-02-14T01:17:49;52.03;;;34.43;;
11604;SDS011;5858;43.076;25.626;2023-02-14T01:20:18;59.83;;;35.73;;
11604;SDS011;5858;43.076;25.626;2023-02-14T01:22:45;55.33;;;34.17;;
11604;SDS011;5858;43.076;25.626;2023-02-14T01:25:13;54.57;;;33.87;;
11604;SDS011;5858;43.076;25.626;2023-02-14T01:27:42;55.43;;;32.30;;
11604;SDS011;5858;43.076;25.626;2023-02-14T01:30:18;51.47;;;32.67;;
11604;SDS011;5858;43.076;25.626;2023-02-14T01:32:51;53.70;;;31.97;;
11604;SDS011;5858;43.076;25.626;2023-02-14T01:35:21;49.03;;;29.93;;
11604;SDS011;5858;43.076;25.626;2023-02-14T01:37:51;47.13;;;27.57;;
11604;SDS011;5858;43.076;25.626;2023-02-14T01:40:24;43.47;;;26.77;;
11604;SDS011;5858;43.076;25.626;2023-02-14T01:42:54;42.67;;;27.90;;
11604;SDS011;5858;43.076;25.626;2023-02-14T01:45:24;46.80;;;29.17;;
11604;SDS011;5858;43.076;25.626;2023-02-14T01:48:04;46.63;;;28.13;;
11604;SDS011;5858;43.076;25.626;2023-02-14T01:50:36;47.87;;;29.03;;
11604;SDS011;5858;43.076;25.626;2023-02-14T01:53:07;50.00;;;30.03;;
11604;SDS011;5858;43.076;25.626;2023-02-14T01:55:40;45.33;;;27.57;;
11604;SDS011;5858;43.076;25.626;2023-02-14T01:58:12;45.57;;;29.13;;
11604;SDS011;5858;43.076;25.626;2023-02-14T02:00:42;45.50;;;29.07;;
11604;SDS011;5858;43.076;25.626;2023-02-14T02:03:26;47.63;;;28.93;;
11604;SDS011;5858;43.076;25.626;2023-02-14T02:06:02;45.83;;;28.87;;
11604;SDS011;5858;43.076;25.626;2023-02-14T02:08:34;46.43;;;28.07;;
11604;SDS011;5858;43.076;25.626;2023-02-14T02:11:06;46.73;;;30.30;;
11604;SDS011;5858;43.076;25.626;2023-02-14T02:13:33;44.57;;;28.40;;
11604;SDS011;5858;43.076;25.626;2023-02-14T02:16:06;46.33;;;28.93;;
11604;SDS011;5858;43.076;25.626;2023-02-14T02:18:51;43.13;;;27.83;;
11604;SDS011;5858;43.076;25.626;2023-02-14T02:24:30;51.30;;;29.37;;
11604;SDS011;5858;43.076;25.626;2023-02-14T02:27:23;50.30;;;29.13;;
11604;SDS011;5858;43.076;25.626;2023-02-14T02:33:26;47.10;;;29.67;;
11604;SDS011;5858;43.076;25.626;2023-02-14T02:36:29;43.60;;;27.73;;
11604;SDS011;5858;43.076;25.626;2023-02-14T02:39:20;49.90;;;29.80;;
11604;SDS011;5858;43.076;25.626;2023-02-14T02:42:02;50.20;;;27.87;;
11604;SDS011;5858;43.076;25.626;2023-02-14T02:44:40;47.43;;;27.97;;
11604;SDS011;5858;43.076;25.626;2023-02-14T02:47:18;50.70;;;29.93;;
11604;SDS011;5858;43.076;25.626;2023-02-14T02:49:54;46.67;;;28.07;;
11604;SDS011;5858;43.076;25.626;2023-02-14T02:52:48;47.50;;;29.73;;
11604;SDS011;5858;43.076;25.626;2023-02-14T02:55:41;44.27;;;29.53;;
11604;SDS011;5858;43.076;25.626;2023-02-14T02:58:29;48.63;;;29.97;;
11604;SDS011;5858;43.076;25.626;2023-02-14T03:01:00;53.60;;;30.87;;
11604;SDS011;5858;43.076;25.626;2023-02-14T03:03:32;48.87;;;29.23;;
11604;SDS011;5858;43.076;25.626;2023-02-14T03:06:19;45.00;;;28.23;;
11604;SDS011;5858;43.076;25.626;2023-02-14T03:08:48;51.20;;;28.83;;
11604;SDS011;5858;43.076;25.626;2023-02-14T03:11:23;48.17;;;29.40;;
11604;SDS011;5858;43.076;25.626;2023-02-14T03:13:58;50.00;;;29.63;;
11604;SDS011;5858;43.076;25.626;2023-02-14T03:16:45;46.20;;;29.40;;
11604;SDS011;5858;43.076;25.626;2023-02-14T03:19:34;48.60;;;29.60;;
11604;SDS011;5858;43.076;25.626;2023-02-14T03:22:31;50.03;;;28.57;;
11604;SDS011;5858;43.076;25.626;2023-02-14T03:25:17;46.40;;;29.80;;
11604;SDS011;5858;43.076;25.626;2023-02-14T03:28:01;49.67;;;29.37;;
11604;SDS011;5858;43.076;25.626;2023-02-14T03:30:40;47.33;;;29.33;;
11604;SDS011;5858;43.076;25.626;2023-02-14T03:33:20;50.83;;;30.03;;
11604;SDS011;5858;43.076;25.626;2023-02-14T03:35:55;50.43;;;30.50;;
11604;SDS011;5858;43.076;25.626;2023-02-14T03:38:30;53.63;;;33.37;;
11604;SDS011;5858;43.076;25.626;2023-02-14T03:41:04;57.17;;;32.37;;
11604;SDS011;5858;43.076;25.626;2023-02-14T03:43:36;51.60;;;29.77;;
11604;SDS011;5858;43.076;25.626;2023-02-14T03:46:09;49.67;;;31.30;;
11604;SDS011;5858;43.076;25.626;2023-02-14T03:48:41;52.07;;;30.80;;
11604;SDS011;5858;43.076;25.626;2023-02-14T03:51:11;47.30;;;28.27;;
11604;SDS011;5858;43.076;25.626;2023-02-14T03:53:41;45.67;;;28.93;;
11604;SDS011;5858;43.076;25.626;2023-02-14T03:56:14;51.20;;;29.13;;
11604;SDS011;5858;43.076;25.626;2023-02-14T03:58:45;51.33;;;29.43;;
11604;SDS011;5858;43.076;25.626;2023-02-14T04:01:19;46.07;;;28.70;;
11604;SDS011;5858;43.076;25.626;2023-02-14T04:03:55;45.70;;;27.83;;
11604;SDS011;5858;43.076;25.626;2023-02-14T04:06:25;54.30;;;31.07;;
11604;SDS011;5858;43.076;25.626;2023-02-14T04:08:57;49.63;;;30.77;;
11604;SDS011;5858;43.076;25.626;2023-02-14T04:14:44;50.70;;;28.37;;
11604;SDS011;5858;43.076;25.626;2023-02-14T04:17:12;52.77;;;30.37;;
11604;SDS011;5858;43.076;25.626;2023-02-14T04:19:56;51.77;;;28.00;;
11604;SDS011;5858;43.076;25.626;2023-02-14T04:25:25;50.93;;;30.30;;
11604;SDS011;5858;43.076;25.626;2023-02-14T04:27:52;50.80;;;29.93;;
11604;SDS011;5858;43.076;25.626;2023-02-14T04:30:21;57.10;;;31.37;;
11604;SDS011;5858;43.076;25.626;2023-02-14T04:32:50;54.73;;;31.50;;
11604;SDS011;5858;43.076;25.626;2023-02-14T04:35:22;53.53;;;31.97;;
11604;SDS011;5858;43.076;25.626;2023-02-14T04:37:52;60.67;;;34.07;;
11604;SDS011;5858;43.076;25.626;2023-02-14T04:40:24;53.40;;;33.27;;
11604;SDS011;5858;43.076;25.626;2023-02-14T04:42:59;50.60;;;30.73;;
11604;SDS011;5858;43.076;25.626;2023-02-14T04:45:35;53.30;;;32.57;;
11604;SDS011;5858;43.076;25.626;2023-02-14T04:48:07;53.77;;;32.57;;
11604;SDS011;5858;43.076;25.626;2023-02-14T04:50:35;59.63;;;35.70;;
11604;SDS011;5858;43.076;25.626;2023-02-14T04:53:02;61.73;;;37.30;;
11604;SDS011;5858;43.076;25.626;2023-02-14T04:55:29;61.70;;;37.57;;
11604;SDS011;5858;43.076;25.626;2023-02-14T04:58:02;61.33;;;35.97;;
11604;SDS011;5858;43.076;25.626;2023-02-14T05:00:35;59.93;;;36.77;;
11604;SDS011;5858;43.076;25.626;2023-02-14T05:03:02;59.10;;;36.27;;
11604;SDS011;5858;43.076;25.626;2023-02-14T05:05:34;54.50;;;33.13;;
11604;SDS011;5858;43.076;25.626;2023-02-14T05:08:16;58.83;;;35.50;;
11604;SDS011;5858;43.076;25.626;2023-02-14T05:10:45;61.77;;;35.50;;
11604;SDS011;5858;43.076;25.626;2023-02-14T05:13:14;62.13;;;39.33;;
11604;SDS011;5858;43.076;25.626;2023-02-14T05:15:45;65.77;;;39.13;;
11604;SDS011;5858;43.076;25.626;2023-02-14T05:18:12;69.23;;;40.57;;
11604;SDS011;5858;43.076;25.626;2023-02-14T05:20:39;58.50;;;35.73;;
11604;SDS011;5858;43.076;25.626;2023-02-14T05:23:11;67.83;;;40.97;;
11604;SDS011;5858;43.076;25.626;2023-02-14T05:25:50;62.40;;;37.40;;
11604;SDS011;5858;43.076;25.626;2023-02-14T05:28:27;66.83;;;38.73;;
11604;SDS011;5858;43.076;25.626;2023-02-14T05:30:57;60.43;;;37.70;;
11604;SDS011;5858;43.076;25.626;2023-02-14T05:33:36;62.43;;;35.07;;
11604;SDS011;5858;43.076;25.626;2023-02-14T05:36:12;67.10;;;38.33;;
11604;SDS011;5858;43.076;25.626;2023-02-14T05:38:53;61.87;;;36.50;;
11604;SDS011;5858;43.076;25.626;2023-02-14T05:41:38;59.53;;;33.37;;
11604;SDS011;5858;43.076;25.626;2023-02-14T05:44:06;54.93;;;35.80;;
11604;SDS011;5858;43.076;25.626;2023-02-14T05:46:37;57.37;;;37.03;;
11604;SDS011;5858;43.076;25.626;2023-02-14T05:49:08;56.67;;;34.93;;
11604;SDS011;5858;43.076;25.626;2023-02-14T05:51:36;54.07;;;33.13;;
11604;SDS011;5858;43.076;25.626;2023-02-14T05:54:06;55.07;;;34.70;;
11604;SDS011;5858;43.076;25.626;2023-02-14T05:56:40;59.93;;;36.57;;
11604;SDS011;5858;43.076;25.626;2023-02-14T05:59:10;64.03;;;37.10;;
11604;SDS011;5858;43.076;25.626;2023-02-14T06:04:38;56.50;;;35.37;;
11604;SDS011;5858;43.076;25.626;2023-02-14T06:12:55;73.23;;;42.80;;
11604;SDS011;5858;43.076;25.626;2023-02-14T06:15:37;76.83;;;42.57;;
11604;SDS011;5858;43.076;25.626;2023-02-14T06:24:32;67.73;;;42.57;;
11604;SDS011;5858;43.076;25.626;2023-02-14T06:34:29;68.83;;;41.50;;
11604;SDS011;5858;43.076;25.626;2023-02-14T06:37:07;64.10;;;37.80;;
11604;SDS011;5858;43.076;25.626;2023-02-14T06:39:41;66.93;;;40.80;;
11604;SDS011;5858;43.076;25.626;2023-02-14T06:42:33;70.60;;;41.40;;
11604;SDS011;5858;43.076;25.626;2023-02-14T07:16:01;70.47;;;44.43;;
11604;SDS011;5858;43.076;25.626;2023-02-14T07:18:45;82.97;;;52.13;;
11604;SDS011;5858;43.076;25.626;2023-02-14T07:28:22;69.53;;;44.47;;
11604;SDS011;5858;43.076;25.626;2023-02-14T07:55:24;30.83;;;19.87;;
11604;SDS011;5858;43.076;25.626;2023-02-14T07:58:28;30.63;;;18.10;;
11604;SDS011;5858;43.076;25.626;2023-02-14T08:35:01;18.13;;;11.17;;
11604;SDS011;5858;43.076;25.626;2023-02-14T08:38:12;16.60;;;10.97;;
11604;SDS011;5858;43.076;25.626;2023-02-14T08:57:42;21.23;;;12.10;;
11604;SDS011;5858;43.076;25.626;2023-02-14T09:03:54;21.57;;;14.13;;
11604;SDS011;5858;43.076;25.626;2023-02-14T09:07:04;32.33;;;12.83;;
11604;SDS011;5858;43.076;25.626;2023-02-14T09:15:42;26.53;;;11.80;;
11604;SDS011;5858;43.076;25.626;2023-02-14T09:18:25;20.53;;;12.13;;
11604;SDS011;5858;43.076;25.626;2023-02-14T09:21:41;19.90;;;10.97;;
11604;SDS011;5858;43.076;25.626;2023-02-14T09:24:49;18.60;;;11.13;;
11604;SDS011;5858;43.076;25.626;2023-02-14T09:27:44;18.77;;;10.67;;
11604;SDS011;5858;43.076;25.626;2023-02-14T09:30:29;21.00;;;12.10;;
11604;SDS011;5858;43.076;25.626;2023-02-14T09:33:09;19.50;;;10.83;;
11604;SDS011;5858;43.076;25.626;2023-02-14T09:35:45;19.30;;;11.13;;
11604;SDS011;5858;43.076;25.626;2023-02-14T09:38:55;17.27;;;11.70;;
11604;SDS011;5858;43.076;25.626;2023-02-14T09:45:14;20.83;;;12.97;;
11604;SDS011;5858;43.076;25.626;2023-02-14T10:01:21;20.43;;;11.67;;
11604;SDS011;5858;43.076;25.626;2023-02-14T10:09:22;15.63;;;10.77;;
11604;SDS011;5858;43.076;25.626;2023-02-14T10:11:05;20.43;;;11.87;;
11604;SDS011;5858;43.076;25.626;2023-02-14T10:14:20;16.53;;;11.33;;
11604;SDS011;5858;43.076;25.626;2023-02-14T10:16:58;19.13;;;12.50;;
11604;SDS011;5858;43.076;25.626;2023-02-14T10:19:45;22.93;;;13.30;;
11604;SDS011;5858;43.076;25.626;2023-02-14T10:22:30;17.10;;;11.60;;
11604;SDS011;5858;43.076;25.626;2023-02-14T10:25:24;22.50;;;13.03;;
11604;SDS011;5858;43.076;25.626;2023-02-14T10:38:10;21.47;;;13.30;;
11604;SDS011;5858;43.076;25.626;2023-02-14T11:22:09;22.23;;;12.00;;
11604;SDS011;5858;43.076;25.626;2023-02-14T11:25:01;15.17;;;12.27;;
11604;SDS011;5858;43.076;25.626;2023-02-14T11:29:18;19.47;;;12.10;;
11604;SDS011;5858;43.076;25.626;2023-02-14T11:34:44;20.53;;;13.13;;
11604;SDS011;5858;43.076;25.626;2023-02-14T12:01:37;23.97;;;13.03;;
11604;SDS011;5858;43.076;25.626;2023-02-14T12:04:31;18.43;;;11.40;;
11604;SDS011;5858;43.076;25.626;2023-02-14T12:24:04;22.40;;;13.40;;
11604;SDS011;5858;43.076;25.626;2023-02-14T12:37:11;22.10;;;15.67;;
11604;SDS011;5858;43.076;25.626;2023-02-14T13:00:40;21.53;;;14.87;;
11604;SDS011;5858;43.076;25.626;2023-02-14T13:04:11;24.90;;;15.97;;
11604;SDS011;5858;43.076;25.626;2023-02-14T13:07:55;23.30;;;14.20;;
11604;SDS011;5858;43.076;25.626;2023-02-14T13:11:27;24.13;;;15.03;;
11604;SDS011;5858;43.076;25.626;2023-02-14T13:17:47;18.20;;;12.90;;
11604;SDS011;5858;43.076;25.626;2023-02-14T13:23:41;18.73;;;13.17;;
11604;SDS011;5858;43.076;25.626;2023-02-14T14:42:50;21.20;;;12.43;;
11604;SDS011;5858;43.076;25.626;2023-02-14T14:52:03;27.57;;;14.43;;
11604;SDS011;5858;43.076;25.626;2023-02-14T14:55:27;20.27;;;13.57;;
11604;SDS011;5858;43.076;25.626;2023-02-14T15:19:49;22.90;;;15.07;;
11604;SDS011;5858;43.076;25.626;2023-02-14T15:22:24;25.67;;;13.53;;
11604;SDS011;5858;43.076;25.626;2023-02-14T15:24:54;23.03;;;13.70;;
11604;SDS011;5858;43.076;25.626;2023-02-14T15:27:25;23.97;;;14.10;;
11604;SDS011;5858;43.076;25.626;2023-02-14T15:30:04;21.30;;;13.27;;
11604;SDS011;5858;43.076;25.626;2023-02-14T15:32:35;23.33;;;13.43;;
11604;SDS011;5858;43.076;25.626;2023-02-14T15:35:10;22.03;;;14.03;;
11604;SDS011;5858;43.076;25.626;2023-02-14T15:37:43;24.30;;;16.00;;
11604;SDS011;5858;43.076;25.626;2023-02-14T15:40:15;19.73;;;12.43;;
11604;SDS011;5858;43.076;25.626;2023-02-14T15:42:43;18.40;;;12.30;;
11604;SDS011;5858;43.076;25.626;2023-02-14T15:45:18;19.53;;;12.60;;
11604;SDS011;5858;43.076;25.626;2023-02-14T15:47:53;29.60;;;14.30;;
11604;SDS011;5858;43.076;25.626;2023-02-14T15:50:44;21.97;;;14.47;;
11604;SDS011;5858;43.076;25.626;2023-02-14T15:53:36;24.90;;;14.07;;
11604;SDS011;5858;43.076;25.626;2023-02-14T15:56:06;24.70;;;14.43;;
11604;SDS011;5858;43.076;25.626;2023-02-14T16:00:15;20.33;;;14.07;;
11604;SDS011;5858;43.076;25.626;2023-02-14T16:02:26;26.77;;;17.77;;
11604;SDS011;5858;43.076;25.626;2023-02-14T16:08:43;28.30;;;15.07;;
11604;SDS011;5858;43.076;25.626;2023-02-14T16:11:12;30.73;;;15.70;;
11604;SDS011;5858;43.076;25.626;2023-02-14T16:13:41;37.53;;;16.27;;
11604;SDS011;5858;43.076;25.626;2023-02-14T16:16:14;33.90;;;16.47;;
11604;SDS011;5858;43.076;25.626;2023-02-14T16:18:44;22.33;;;15.10;;
11604;SDS011;5858;43.076;25.626;2023-02-14T16:24:39;37.00;;;21.07;;
11604;SDS011;5858;43.076;25.626;2023-02-14T16:30:42;50.07;;;27.20;;
11604;SDS011;5858;43.076;25.626;2023-02-14T16:33:42;26.50;;;17.50;;
11604;SDS011;5858;43.076;25.626;2023-02-14T16:36:19;29.50;;;14.97;;
11604;SDS011;5858;43.076;25.626;2023-02-14T16:39:09;27.20;;;16.67;;
11604;SDS011;5858;43.076;25.626;2023-02-14T16:52:17;21.80;;;14.77;;
11604;SDS011;5858;43.076;25.626;2023-02-14T16:55:04;23.57;;;15.37;;
11604;SDS011;5858;43.076;25.626;2023-02-14T16:57:35;24.30;;;13.67;;
11604;SDS011;5858;43.076;25.626;2023-02-14T17:00:07;24.13;;;15.63;;
11604;SDS011;5858;43.076;25.626;2023-02-14T17:02:35;21.80;;;13.43;;
11604;SDS011;5858;43.076;25.626;2023-02-14T17:05:08;37.37;;;21.73;;
11604;SDS011;5858;43.076;25.626;2023-02-14T17:07:37;32.33;;;18.93;;
11604;SDS011;5858;43.076;25.626;2023-02-14T17:10:08;35.60;;;19.63;;
11604;SDS011;5858;43.076;25.626;2023-02-14T17:12:44;33.70;;;19.50;;
11604;SDS011;5858;43.076;25.626;2023-02-14T17:15:13;31.43;;;18.60;;
11604;SDS011;5858;43.076;25.626;2023-02-14T17:17:54;38.13;;;21.40;;
11604;SDS011;5858;43.076;25.626;2023-02-14T17:20:24;48.87;;;27.63;;
11604;SDS011;5858;43.076;25.626;2023-02-14T17:22:56;43.30;;;28.30;;
11604;SDS011;5858;43.076;25.626;2023-02-14T17:25:26;33.60;;;23.93;;
11604;SDS011;5858;43.076;25.626;2023-02-14T17:27:54;46.10;;;23.10;;
11604;SDS011;5858;43.076;25.626;2023-02-14T17:30:22;34.40;;;20.57;;
11604;SDS011;5858;43.076;25.626;2023-02-14T17:32:49;42.00;;;24.10;;
11604;SDS011;5858;43.076;25.626;2023-02-14T17:35:18;40.60;;;24.43;;
11604;SDS011;5858;43.076;25.626;2023-02-14T17:37:47;43.23;;;27.87;;
11604;SDS011;5858;43.076;25.626;2023-02-14T17:40:19;45.43;;;29.00;;
11604;SDS011;5858;43.076;25.626;2023-02-14T17:42:47;41.53;;;27.17;;
11604;SDS011;5858;43.076;25.626;2023-02-14T17:45:14;36.23;;;21.80;;
11604;SDS011;5858;43.076;25.626;2023-02-14T17:47:41;32.07;;;22.97;;
11604;SDS011;5858;43.076;25.626;2023-02-14T17:50:09;39.30;;;23.67;;
11604;SDS011;5858;43.076;25.626;2023-02-14T17:52:51;35.00;;;20.33;;
11604;SDS011;5858;43.076;25.626;2023-02-14T18:05:22;25.30;;;17.13;;
11604;SDS011;5858;43.076;25.626;2023-02-14T18:08:35;27.20;;;17.77;;
11604;SDS011;5858;43.076;25.626;2023-02-14T18:14:39;25.33;;;15.53;;
11604;SDS011;5858;43.076;25.626;2023-02-14T18:24:16;17.30;;;12.37;;
11604;SDS011;5858;43.076;25.626;2023-02-14T18:27:01;21.57;;;14.70;;
11604;SDS011;5858;43.076;25.626;2023-02-14T18:29:54;18.63;;;12.77;;
11604;SDS011;5858;43.076;25.626;2023-02-14T18:32:57;18.83;;;12.97;;
11604;SDS011;5858;43.076;25.626;2023-02-14T20:08:11;23.17;;;15.27;;
11604;SDS011;5858;43.076;25.626;2023-02-14T20:10:43;23.67;;;15.33;;
11604;SDS011;5858;43.076;25.626;2023-02-14T20:13:20;22.23;;;16.50;;
11604;SDS011;5858;43.076;25.626;2023-02-14T20:15:53;23.10;;;16.77;;
11604;SDS011;5858;43.076;25.626;2023-02-14T20:18:28;22.70;;;16.30;;
11604;SDS011;5858;43.076;25.626;2023-02-14T20:21:00;24.53;;;16.73;;
11604;SDS011;5858;43.076;25.626;2023-02-14T20:23:30;24.37;;;16.70;;
11604;SDS011;5858;43.076;25.626;2023-02-14T20:26:21;22.97;;;15.70;;
11604;SDS011;5858;43.076;25.626;2023-02-14T20:28:56;24.47;;;16.03;;
11604;SDS011;5858;43.076;25.626;2023-02-14T20:31:28;20.57;;;15.17;;
11604;SDS011;5858;43.076;25.626;2023-02-14T20:33:59;25.20;;;16.43;;
11604;SDS011;5858;43.076;25.626;2023-02-14T20:36:33;25.13;;;16.33;;
11604;SDS011;5858;43.076;25.626;2023-02-14T20:39:05;22.57;;;16.10;;
11604;SDS011;5858;43.076;25.626;2023-02-14T20:41:34;21.53;;;15.40;;
11604;SDS011;5858;43.076;25.626;2023-02-14T20:44:14;22.10;;;16.00;;
11604;SDS011;5858;43.076;25.626;2023-02-14T20:46:44;24.80;;;16.03;;
11604;SDS011;5858;43.076;25.626;2023-02-14T20:49:11;23.80;;;15.50;;
11604;SDS011;5858;43.076;25.626;2023-02-14T20:51:58;22.37;;;15.67;;
11604;SDS011;5858;43.076;25.626;2023-02-14T20:54:34;24.10;;;15.23;;
11604;SDS011;5858;43.076;25.626;2023-02-14T20:57:04;23.47;;;15.83;;
11604;SDS011;5858;43.076;25.626;2023-02-14T20:59:46;23.70;;;16.13;;
11604;SDS011;5858;43.076;25.626;2023-02-14T21:06:11;26.07;;;16.40;;
11604;SDS011;5858;43.076;25.626;2023-02-14T21:09:14;23.80;;;15.30;;
11604;SDS011;5858;43.076;25.626;2023-02-14T21:12:24;23.57;;;16.60;;
11604;SDS011;5858;43.076;25.626;2023-02-14T21:14:52;23.97;;;16.17;;
11604;SDS011;5858;43.076;25.626;2023-02-14T21:17:19;23.27;;;15.60;;
11604;SDS011;5858;43.076;25.626;2023-02-14T21:19:46;22.97;;;16.50;;
11604;SDS011;5858;43.076;25.626;2023-02-14T21:22:13;22.40;;;16.37;;
11604;SDS011;5858;43.076;25.626;2023-02-14T21:24:41;29.80;;;16.90;;
11604;SDS011;5858;43.076;25.626;2023-02-14T21:27:08;19.80;;;13.90;;
11604;SDS011;5858;43.076;25.626;2023-02-14T21:29:37;20.97;;;15.50;;
11604;SDS011;5858;43.076;25.626;2023-02-14T21:32:22;26.63;;;16.13;;
11604;SDS011;5858;43.076;25.626;2023-02-14T21:38:31;25.63;;;15.90;;
11604;SDS011;5858;43.076;25.626;2023-02-14T21:41:23;21.27;;;14.83;;
11604;SDS011;5858;43.076;25.626;2023-02-14T21:44:23;24.63;;;15.63;;
11604;SDS011;5858;43.076;25.626;2023-02-14T21:47:42;23.30;;;15.10;;
11604;SDS011;5858;43.076;25.626;2023-02-14T21:50:41;20.47;;;15.37;;
11604;SDS011;5858;43.076;25.626;2023-02-14T21:53:22;25.07;;;15.60;;
11604;SDS011;5858;43.076;25.626;2023-02-14T21:59:47;25.23;;;15.60;;
11604;SDS011;5858;43.076;25.626;2023-02-14T22:02:56;26.27;;;17.20;;
11604;SDS011;5858;43.076;25.626;2023-02-14T22:12:25;22.87;;;16.17;;
11604;SDS011;5858;43.076;25.626;2023-02-14T22:18:09;24.70;;;16.33;;
11604;SDS011;5858;43.076;25.626;2023-02-14T22:20:47;23.40;;;16.33;;
11604;SDS011;5858;43.076;25.626;2023-02-14T22:23:16;23.00;;;16.83;;
11604;SDS011;5858;43.076;25.626;2023-02-14T22:25:44;25.90;;;17.80;;
11604;SDS011;5858;43.076;25.626;2023-02-14T22:28:13;26.10;;;17.47;;
11604;SDS011;5858;43.076;25.626;2023-02-14T22:30:43;25.43;;;17.43;;
11604;SDS011;5858;43.076;25.626;2023-02-14T22:33:15;21.70;;;16.73;;
11604;SDS011;5858;43.076;25.626;2023-02-14T22:35:52;24.13;;;17.47;;
11604;SDS011;5858;43.076;25.626;2023-02-14T22:38:20;26.70;;;17.87;;
11604;SDS011;5858;43.076;25.626;2023-02-14T22:40:47;25.43;;;17.13;;
11604;SDS011;5858;43.076;25.626;2023-02-14T22:43:15;24.83;;;17.93;;
11604;SDS011;5858;43.076;25.626;2023-02-14T22:45:43;26.23;;;17.80;;
11604;SDS011;5858;43.076;25.626;2023-02-14T22:48:12;26.37;;;18.37;;
11604;SDS011;5858;43.076;25.626;2023-02-14T22:50:41;27.57;;;19.23;;
11604;SDS011;5858;43.076;25.626;2023-02-14T22:53:08;26.63;;;17.93;;
11604;SDS011;5858;43.076;25.626;2023-02-14T22:55:37;27.53;;;18.70;;
11604;SDS011;5858;43.076;25.626;2023-02-14T22:58:05;26.27;;;17.33;;
11604;SDS011;5858;43.076;25.626;2023-02-14T23:00:32;26.67;;;18.07;;
11604;SDS011;5858;43.076;25.626;2023-02-14T23:02:59;31.33;;;18.17;;
11604;SDS011;5858;43.076;25.626;2023-02-14T23:05:28;27.97;;;19.13;;
11604;SDS011;5858;43.076;25.626;2023-02-14T23:07:58;28.70;;;18.77;;
11604;SDS011;5858;43.076;25.626;2023-02-14T23:10:26;27.43;;;18.20;;
11604;SDS011;5858;43.076;25.626;2023-02-14T23:12:53;26.63;;;17.97;;
11604;SDS011;5858;43.076;25.626;2023-02-14T23:15:37;24.53;;;17.23;;
11604;SDS011;5858;43.076;25.626;2023-02-14T23:18:22;26.07;;;18.43;;
11604;SDS011;5858;43.076;25.626;2023-02-14T23:21:09;26.43;;;19.57;;
11604;SDS011;5858;43.076;25.626;2023-02-14T23:23:56;26.87;;;18.80;;
11604;SDS011;5858;43.076;25.626;2023-02-14T23:26:23;28.23;;;18.70;;
11604;SDS011;5858;43.076;25.626;2023-02-14T23:28:50;26.77;;;18.63;;
11604;SDS011;5858;43.076;25.626;2023-02-14T23:31:17;26.90;;;18.63;;
11604;SDS011;5858;43.076;25.626;2023-02-14T23:33:48;26.30;;;17.93;;
11604;SDS011;5858;43.076;25.626;2023-02-14T23:36:18;25.37;;;17.23;;
11604;SDS011;5858;43.076;25.626;2023-02-14T23:38:45;28.63;;;19.23;;
11604;SDS011;5858;43.076;25.626;2023-02-14T23:41:12;27.93;;;18.27;;
11604;SDS011;5858;43.076;25.626;2023-02-14T23:43:56;25.60;;;17.90;;
11604;SDS011;5858;43.076;25.626;2023-02-14T23:46:24;28.07;;;19.00;;
11604;SDS011;5858;43.076;25.626;2023-02-14T23:48:51;29.70;;;17.87;;
11604;SDS011;5858;43.076;25.626;2023-02-14T23:51:19;28.97;;;18.73;;
11604;SDS011;5858;43.076;25.626;2023-02-14T23:53:46;26.50;;;18.53;;
11604;SDS011;5858;43.076;25.626;2023-02-14T23:56:16;24.77;;;17.07;;
11604;SDS011;5858;43.076;25.626;2023-02-14T23:58:44;31.13;;;19.40;;
